Time,TemperatureF,DewpointF,PressureIn,WindDirection,WindDirectionDegrees,WindSpeedMPH,WindSpeedGustMPH,Humidity,HourlyPrecipIn,Conditions,Clouds,dailyrainin,SoftwareType,DateUTC
2013-03-25 00:02:00,27.5,25.5,29.97,North,0,5.8,5.8,92,0.00,CLR,,0.00,WeatherDisplay:10.37,2013-03-25 05:02:00,
2013-03-25 00:07:00,27.5,25.5,29.96,North,0,0.0,0.0,92,0.00,CLR,,0.00,WeatherDisplay:10.37,2013-03-25 05:07:00,
2013-03-25 00:12:00,27.5,25.5,29.97,North,0,5.8,5.8,92,0.00,CLR,,0.00,WeatherDisplay:10.37,2013-03-25 05:12:00,
2013-03-25 00:17:00,27.5,25.5,29.96,North,0,8.1,8.1,92,0.00,CLR,,0.00,WeatherDisplay:10.37,2013-03-25 05:17:00,
2013-03-25 00:22:00,27.5,25.5,29.97,North,0,8.1,8.1,92,0.00,CLR,,0.00,WeatherDisplay:10.37,2013-03-25 05:22:00,
2013-03-25 00:27:00,27.3,25.3,29.97,NNE,22,8.1,8.1,92,0.00,CLR,,0.00,WeatherDisplay:10.37,2013-03-25 05:27:00,
2013-03-25 00:32:00,27.3,25.3,29.97,North,0,6.9,7.2,92,0.00,CLR,,0.00,WeatherDisplay:10.37,2013-03-25 05:32:00,
2013-03-25 00:37:00,27.1,25.1,29.97,NNE,22,8.1,8.7,92,0.00,CLR,,0.00,WeatherDisplay:10.37,2013-03-25 05:37:00,
2013-03-25 00:42:00,27.1,24.9,29.97,NNE,22,5.9,6.0,91,0.00,CLR,,0.00,WeatherDisplay:10.37,2013-03-25 05:42:00,
2013-03-25 00:47:00,27.0,24.7,29.97,NNE,22,3.5,3.5,91,0.00,CLR,,0.00,WeatherDisplay:10.37,2013-03-25 05:47:00,
2013-03-25 00:52:00,27.0,24.7,29.97,North,0,6.9,6.9,91,0.00,CLR,,0.00,WeatherDisplay:10.37,2013-03-25 05:52:00,
2013-03-25 00:57:00,27.0,24.4,29.97,North,0,7.3,7.3,90,0.00,CLR,,0.00,WeatherDisplay:10.37,2013-03-25 05:57:00,
2013-03-25 01:02:00,27.0,24.4,29.97,North,0,4.6,6.1,90,0.00,CLR,,0.00,WeatherDisplay:10.37,2013-03-25 06:02:00,
2013-03-25 01:07:00,27.0,24.4,29.97,North,0,5.7,5.7,90,0.00,CLR,,0.00,WeatherDisplay:10.37,2013-03-25 06:07:00,
2013-03-25 01:12:00,26.8,24.2,29.97,North,0,7.0,7.0,90,0.00,CLR,,0.00,WeatherDisplay:10.37,2013-03-25 06:12:00,
2013-03-25 01:17:00,26.8,24.2,29.97,North,0,8.1,8.1,90,0.00,CLR,,0.00,WeatherDisplay:10.37,2013-03-25 06:17:00,
2013-03-25 01:22:00,26.8,24.2,29.97,North,0,6.9,7.8,90,0.00,CLR,,0.00,WeatherDisplay:10.37,2013-03-25 06:22:00,
2013-03-25 01:27:00,26.8,24.2,29.97,North,0,6.9,7.1,90,0.00,CLR,,0.00,WeatherDisplay:10.37,2013-03-25 06:27:00,
2013-03-25 01:32:00,26.8,24.2,29.97,North,0,6.9,6.9,90,0.00,CLR,,0.00,WeatherDisplay:10.37,2013-03-25 06:32:00,
2013-03-25 01:37:00,26.8,24.2,29.97,North,0,5.8,6.2,90,0.00,CLR,,0.00,WeatherDisplay:10.37,2013-03-25 06:37:00,
2013-03-25 01:42:00,26.8,24.2,29.97,North,0,5.8,5.8,90,0.00,CLR,,0.00,WeatherDisplay:10.37,2013-03-25 06:42:00,
2013-03-25 01:47:00,26.8,24.2,29.97,North,0,8.1,8.1,90,0.00,CLR,,0.00,WeatherDisplay:10.37,2013-03-25 06:47:00,
2013-03-25 01:52:00,26.8,24.2,29.97,North,0,6.9,7.8,90,0.00,CLR,,0.00,WeatherDisplay:10.37,2013-03-25 06:52:00,
2013-03-25 01:57:00,26.8,24.2,29.97,North,0,8.1,8.1,90,0.00,CLR,,0.00,WeatherDisplay:10.37,2013-03-25 06:57:00,
2013-03-25 02:02:00,26.8,24.5,29.97,North,0,8.1,8.1,91,0.00,CLR,,0.00,WeatherDisplay:10.37,2013-03-25 07:02:00,
2013-03-25 02:08:00,26.8,24.5,29.97,North,0,5.8,5.8,91,0.00,CLR,,0.00,WeatherDisplay:10.37,2013-03-25 07:08:00,
2013-03-25 02:13:00,26.8,24.5,29.97,North,0,8.1,8.1,91,0.00,CLR,,0.00,WeatherDisplay:10.37,2013-03-25 07:13:00,
2013-03-25 02:18:00,26.8,24.5,29.97,North,0,6.9,6.9,91,0.00,CLR,,0.00,WeatherDisplay:10.37,2013-03-25 07:18:00,
2013-03-25 02:23:00,26.8,24.5,29.97,North,0,6.8,6.8,91,0.00,CLR,,0.00,WeatherDisplay:10.37,2013-03-25 07:23:00,
2013-03-25 02:28:00,26.8,24.5,29.97,North,0,6.9,7.5,91,0.00,CLR,,0.00,WeatherDisplay:10.37,2013-03-25 07:28:00,
2013-03-25 02:33:00,27.0,24.7,29.97,North,0,3.5,3.5,91,0.00,CLR,,0.00,WeatherDisplay:10.37,2013-03-25 07:33:00,
2013-03-25 02:38:00,27.0,24.7,29.97,North,0,1.1,1.1,91,0.00,CLR,,0.00,WeatherDisplay:10.37,2013-03-25 07:38:00,
2013-03-25 02:43:00,27.0,24.7,29.97,NNW,338,1.1,0.0,91,0.00,CLR,,0.00,WeatherDisplay:10.37,2013-03-25 07:43:00,
2013-03-25 02:48:00,26.8,24.5,29.97,North,0,0.0,0.0,91,0.00,CLR,,0.00,WeatherDisplay:10.37,2013-03-25 07:48:00,
2013-03-25 02:53:00,27.0,24.7,29.97,North,0,1.1,1.1,91,0.00,CLR,,0.00,WeatherDisplay:10.37,2013-03-25 07:53:00,
2013-03-25 02:58:00,27.0,24.7,29.97,North,0,6.9,6.9,91,0.00,CLR,,0.00,WeatherDisplay:10.37,2013-03-25 07:58:00,
2013-03-25 03:03:00,27.0,24.7,29.97,North,0,6.9,6.9,91,0.00,CLR,,0.00,WeatherDisplay:10.37,2013-03-25 08:03:00,
2013-03-25 03:08:00,27.0,24.9,29.97,North,0,5.8,5.9,92,0.00,CLR,,0.00,WeatherDisplay:10.37,2013-03-25 08:08:00,
2013-03-25 03:13:00,27.1,25.1,29.97,North,0,8.4,9.0,92,0.00,CLR,,0.00,WeatherDisplay:10.37,2013-03-25 08:13:00,
2013-03-25 03:18:00,27.0,24.9,29.97,North,0,9.2,9.2,92,0.00,CLR,,0.00,WeatherDisplay:10.37,2013-03-25 08:18:00,
2013-03-25 03:23:00,27.1,25.1,29.97,North,0,9.7,10.2,92,0.00,CLR,,0.00,WeatherDisplay:10.37,2013-03-25 08:23:00,
2013-03-25 03:28:00,27.0,24.9,29.97,North,0,8.4,9.3,92,0.00,CLR,,0.00,WeatherDisplay:10.37,2013-03-25 08:28:00,
2013-03-25 03:33:00,27.0,24.7,29.97,North,0,8.1,9.0,91,0.00,CLR,,0.00,WeatherDisplay:10.37,2013-03-25 08:33:00,
2013-03-25 03:38:00,27.0,24.7,29.97,North,0,9.2,9.2,91,0.00,CLR,,0.00,WeatherDisplay:10.37,2013-03-25 08:38:00,
2013-03-25 03:43:00,26.8,24.5,29.97,NNW,338,5.8,6.1,91,0.00,CLR,,0.00,WeatherDisplay:10.37,2013-03-25 08:43:00,
2013-03-25 03:48:00,26.8,24.5,29.97,North,0,9.2,9.2,91,0.00,CLR,,0.00,WeatherDisplay:10.37,2013-03-25 08:48:00,
2013-03-25 03:53:00,26.8,24.5,29.97,North,0,9.7,10.0,91,0.00,CLR,,0.00,WeatherDisplay:10.37,2013-03-25 08:53:00,
2013-03-25 03:58:00,26.8,24.5,29.97,North,0,9.2,9.3,91,0.00,CLR,,0.00,WeatherDisplay:10.37,2013-03-25 08:58:00,
2013-03-25 04:03:00,26.6,24.3,29.97,North,0,9.2,9.2,91,0.00,CLR,,0.00,WeatherDisplay:10.37,2013-03-25 09:03:00,
2013-03-25 04:08:00,26.4,24.1,29.97,North,0,8.1,8.6,91,0.00,CLR,,0.00,WeatherDisplay:10.37,2013-03-25 09:08:00,
2013-03-25 04:13:00,26.4,24.1,29.97,NNW,338,3.8,4.1,91,0.00,CLR,,0.00,WeatherDisplay:10.37,2013-03-25 09:13:00,
2013-03-25 04:18:00,26.1,23.8,29.97,North,0,4.6,5.5,91,0.00,CLR,,0.00,WeatherDisplay:10.37,2013-03-25 09:18:00,
2013-03-25 04:23:00,26.1,23.8,29.97,North,0,6.9,6.9,91,0.00,CLR,,0.00,WeatherDisplay:10.37,2013-03-25 09:23:00,
2013-03-25 04:28:00,25.9,23.6,29.97,North,0,3.5,3.8,91,0.00,CLR,,0.00,WeatherDisplay:10.37,2013-03-25 09:28:00,
2013-03-25 04:33:00,25.7,23.2,29.97,North,0,11.9,11.9,90,0.00,CLR,,0.00,WeatherDisplay:10.37,2013-03-25 09:33:00,
2013-03-25 04:38:00,25.5,23.0,29.99,North,0,0.0,0.0,90,0.00,CLR,,0.00,WeatherDisplay:10.37,2013-03-25 09:38:00,
2013-03-25 04:43:00,25.3,22.8,29.97,NNW,338,3.8,4.1,90,0.00,CLR,,0.00,WeatherDisplay:10.37,2013-03-25 09:43:00,
2013-03-25 04:48:00,25.3,22.8,29.99,North,0,9.2,9.2,90,0.00,CLR,,0.00,WeatherDisplay:10.37,2013-03-25 09:48:00,
2013-03-25 04:53:00,25.2,22.6,29.99,North,0,0.3,0.3,90,0.00,CLR,,0.00,WeatherDisplay:10.37,2013-03-25 09:53:00,
2013-03-25 04:58:00,25.2,22.6,29.99,NNW,338,6.9,7.2,90,0.00,CLR,,0.00,WeatherDisplay:10.37,2013-03-25 09:58:00,
2013-03-25 05:03:00,25.2,22.6,29.99,North,0,0.0,0.0,90,0.00,CLR,,0.00,WeatherDisplay:10.37,2013-03-25 10:03:00,
2013-03-25 05:08:00,25.0,22.5,29.99,North,0,8.1,8.1,90,0.00,CLR,,0.00,WeatherDisplay:10.37,2013-03-25 10:08:00,
2013-03-25 05:13:00,25.0,22.5,29.99,North,0,2.3,2.8,90,0.00,CLR,,0.00,WeatherDisplay:10.37,2013-03-25 10:13:00,
2013-03-25 05:18:00,25.0,22.5,29.99,NNE,22,8.1,8.2,90,0.00,CLR,,0.00,WeatherDisplay:10.37,2013-03-25 10:18:00,
2013-03-25 05:23:00,25.0,22.2,29.99,NNW,338,0.0,0.0,89,0.00,CLR,,0.00,WeatherDisplay:10.37,2013-03-25 10:23:00,
2013-03-25 05:28:00,25.0,22.2,29.99,NNW,338,6.5,6.5,89,0.00,CLR,,0.00,WeatherDisplay:10.37,2013-03-25 10:28:00,
2013-03-25 05:33:00,24.8,22.0,29.99,North,0,8.1,8.1,89,0.00,CLR,,0.00,WeatherDisplay:10.37,2013-03-25 10:33:00,
2013-03-25 05:38:00,24.6,21.8,29.99,North,0,8.1,8.1,89,0.00,CLR,,0.00,WeatherDisplay:10.37,2013-03-25 10:38:00,
2013-03-25 05:43:00,24.6,21.8,29.99,North,0,3.5,3.5,89,0.00,CLR,,0.00,WeatherDisplay:10.37,2013-03-25 10:43:00,
2013-03-25 05:48:00,24.6,21.8,29.99,North,0,1.1,1.1,89,0.00,CLR,,0.00,WeatherDisplay:10.37,2013-03-25 10:48:00,
2013-03-25 05:53:00,24.6,21.8,29.99,NNW,338,6.9,6.9,89,0.00,CLR,,0.00,WeatherDisplay:10.37,2013-03-25 10:53:00,
2013-03-25 05:58:00,24.6,21.8,29.99,North,0,8.1,8.1,89,0.00,CLR,,0.00,WeatherDisplay:10.37,2013-03-25 10:58:00,
2013-03-25 06:03:00,24.4,21.7,30.00,North,0,8.1,8.2,89,0.00,CLR,,0.00,WeatherDisplay:10.37,2013-03-25 11:03:00,
2013-03-25 06:08:00,24.4,21.7,30.00,North,0,3.5,3.5,89,0.00,CLR,,0.00,WeatherDisplay:10.37,2013-03-25 11:08:00,
2013-03-25 06:13:00,24.4,21.7,30.00,NNW,338,5.8,5.8,89,0.00,CLR,,0.00,WeatherDisplay:10.37,2013-03-25 11:13:00,
2013-03-25 06:18:00,24.4,21.7,30.00,North,0,9.2,9.2,89,0.00,CLR,,0.00,WeatherDisplay:10.37,2013-03-25 11:18:00,
2013-03-25 06:23:00,24.4,21.7,30.00,North,0,2.3,2.3,89,0.00,CLR,,0.00,WeatherDisplay:10.37,2013-03-25 11:23:00,
2013-03-25 06:28:00,24.3,21.5,30.00,NNW,338,4.6,4.6,89,0.00,CLR,,0.00,WeatherDisplay:10.37,2013-03-25 11:28:00,
2013-03-25 06:33:00,24.4,21.7,30.00,NNW,338,5.9,6.4,89,0.00,CLR,,0.00,WeatherDisplay:10.37,2013-03-25 11:33:00,
2013-03-25 06:38:00,24.3,21.5,30.00,NNW,338,0.0,0.0,89,0.00,CLR,,0.00,WeatherDisplay:10.37,2013-03-25 11:38:00,
2013-03-25 06:43:00,24.3,21.5,30.00,North,0,6.9,6.9,89,0.00,CLR,,0.00,WeatherDisplay:10.37,2013-03-25 11:43:00,
2013-03-25 06:48:00,24.3,21.5,30.01,NNW,338,5.8,5.8,89,0.00,CLR,,0.00,WeatherDisplay:10.37,2013-03-25 11:48:00,
2013-03-25 06:53:00,24.3,21.5,30.00,North,0,4.6,4.6,89,0.00,CLR,,0.00,WeatherDisplay:10.37,2013-03-25 11:53:00,
2013-03-25 06:58:00,24.3,21.5,30.01,NNW,338,2.3,2.3,89,0.00,CLR,,0.00,WeatherDisplay:10.37,2013-03-25 11:58:00,
2013-03-25 07:03:00,24.3,21.5,30.01,North,0,7.0,7.5,89,0.00,CLR,,0.00,WeatherDisplay:10.37,2013-03-25 12:03:00,
2013-03-25 07:08:00,24.3,21.5,30.01,North,0,11.5,11.5,89,0.00,CLR,,0.00,WeatherDisplay:10.37,2013-03-25 12:08:00,
2013-03-25 07:13:00,24.3,21.5,30.02,NNW,338,5.1,5.5,89,0.00,CLR,,0.00,WeatherDisplay:10.37,2013-03-25 12:13:00,
2013-03-25 07:18:00,24.3,21.5,30.01,NNW,338,2.3,2.6,89,0.00,CLR,,0.00,WeatherDisplay:10.37,2013-03-25 12:18:00,
2013-03-25 07:23:00,24.3,21.5,30.02,NNW,338,0.0,0.0,89,0.00,CLR,,0.00,WeatherDisplay:10.37,2013-03-25 12:23:00,
2013-03-25 07:28:00,24.3,21.5,30.02,North,0,5.1,5.4,89,0.00,CLR,,0.00,WeatherDisplay:10.37,2013-03-25 12:28:00,
2013-03-25 07:33:00,24.4,21.7,30.02,NNW,338,3.5,3.5,89,0.00,CLR,,0.00,WeatherDisplay:10.37,2013-03-25 12:33:00,
2013-03-25 07:38:00,24.3,21.5,30.02,NNW,338,8.1,8.1,89,0.00,CLR,,0.00,WeatherDisplay:10.37,2013-03-25 12:38:00,
2013-03-25 07:43:00,24.4,21.4,30.02,North,0,5.8,5.8,88,0.00,CLR,,0.00,WeatherDisplay:10.37,2013-03-25 12:43:00,
2013-03-25 07:48:00,24.4,21.4,30.02,NNW,338,8.1,8.7,88,0.00,CLR,,0.00,WeatherDisplay:10.37,2013-03-25 12:48:00,
2013-03-25 07:53:00,24.6,21.6,30.03,North,0,8.1,8.1,88,0.00,CLR,,0.00,WeatherDisplay:10.37,2013-03-25 12:53:00,
2013-03-25 07:58:00,24.6,21.6,30.03,North,0,0.0,0.0,88,0.00,CLR,,0.00,WeatherDisplay:10.37,2013-03-25 12:58:00,
2013-03-25 08:03:00,24.8,21.8,30.03,NNW,338,5.8,6.1,88,0.00,CLR,,0.00,WeatherDisplay:10.37,2013-03-25 13:03:00,
2013-03-25 08:08:00,25.0,21.9,30.03,NNW,338,2.7,2.7,88,0.00,CLR,,0.00,WeatherDisplay:10.37,2013-03-25 13:08:00,
2013-03-25 08:14:00,25.0,21.9,30.04,NNW,338,5.8,5.8,88,0.00,CLR,,0.00,WeatherDisplay:10.37,2013-03-25 13:14:00,
2013-03-25 08:19:00,25.2,22.1,30.04,North,0,3.5,3.5,88,0.00,CLR,,0.00,WeatherDisplay:10.37,2013-03-25 13:19:00,
2013-03-25 08:24:00,25.2,21.8,30.04,NNW,338,5.1,5.5,87,0.00,CLR,,0.00,WeatherDisplay:10.37,2013-03-25 13:24:00,
2013-03-25 08:29:00,25.5,22.2,30.04,North,0,2.4,2.6,87,0.00,CLR,,0.00,WeatherDisplay:10.37,2013-03-25 13:29:00,
2013-03-25 08:34:00,25.7,22.4,30.04,NNW,338,4.6,4.6,87,0.00,CLR,,0.00,WeatherDisplay:10.37,2013-03-25 13:34:00,
2013-03-25 08:39:00,25.9,22.5,30.05,NNW,338,10.4,11.0,87,0.00,CLR,,0.00,WeatherDisplay:10.37,2013-03-25 13:39:00,
2013-03-25 08:44:00,26.1,22.4,30.05,North,0,4.9,4.9,86,0.00,CLR,,0.00,WeatherDisplay:10.37,2013-03-25 13:44:00,
2013-03-25 08:49:00,26.1,22.4,30.05,North,0,1.1,1.1,86,0.00,CLR,,0.00,WeatherDisplay:10.37,2013-03-25 13:49:00,
2013-03-25 08:54:00,26.2,22.6,30.05,North,0,7.3,7.8,86,0.00,CLR,,0.00,WeatherDisplay:10.37,2013-03-25 13:54:00,
2013-03-25 08:59:00,26.8,22.9,30.05,North,0,3.5,3.5,85,0.00,CLR,,0.00,WeatherDisplay:10.37,2013-03-25 13:59:00,
2013-03-25 09:04:00,26.8,22.9,30.05,NNW,338,6.9,6.9,85,0.00,CLR,,0.00,WeatherDisplay:10.37,2013-03-25 14:04:00,
2013-03-25 09:09:00,27.1,23.2,30.05,North,0,6.2,6.7,85,0.00,CLR,,0.00,WeatherDisplay:10.37,2013-03-25 14:09:00,
2013-03-25 09:14:00,27.5,23.3,30.06,NNW,338,7.6,7.6,84,0.00,CLR,,0.00,WeatherDisplay:10.37,2013-03-25 14:14:00,
2013-03-25 09:19:00,27.7,23.5,30.06,North,0,10.4,10.4,84,0.00,CLR,,0.00,WeatherDisplay:10.37,2013-03-25 14:19:00,
2013-03-25 09:24:00,27.9,23.7,30.06,North,0,7.3,7.8,84,0.00,CLR,,0.00,WeatherDisplay:10.37,2013-03-25 14:24:00,
2013-03-25 09:29:00,28.0,23.5,30.06,North,0,9.2,9.5,83,0.00,CLR,,0.00,WeatherDisplay:10.37,2013-03-25 14:29:00,
2013-03-25 09:34:00,28.2,23.4,30.06,NNW,338,9.2,9.2,82,0.00,CLR,,0.00,WeatherDisplay:10.37,2013-03-25 14:34:00,
2013-03-25 09:39:00,28.6,23.5,30.07,North,0,8.1,8.1,81,0.00,CLR,,0.00,WeatherDisplay:10.37,2013-03-25 14:39:00,
2013-03-25 09:44:00,28.8,23.7,30.07,North,0,8.1,8.1,81,0.00,CLR,,0.00,WeatherDisplay:10.37,2013-03-25 14:44:00,
2013-03-25 09:49:00,28.9,23.5,30.07,North,0,5.8,5.8,80,0.00,CLR,,0.00,WeatherDisplay:10.37,2013-03-25 14:49:00,
2013-03-25 09:54:00,29.1,23.4,30.07,North,0,9.2,9.3,79,0.00,CLR,,0.00,WeatherDisplay:10.37,2013-03-25 14:54:00,
2013-03-25 09:59:00,29.5,23.8,30.07,North,0,6.9,9.1,79,0.00,CLR,,0.00,WeatherDisplay:10.37,2013-03-25 14:59:00,
2013-03-25 10:04:00,29.7,23.6,30.07,North,0,6.9,6.9,78,0.00,CLR,,0.00,WeatherDisplay:10.37,2013-03-25 15:04:00,
2013-03-25 10:09:00,29.8,23.5,30.08,North,0,7.3,7.8,77,0.00,CLR,,0.00,WeatherDisplay:10.37,2013-03-25 15:09:00,
2013-03-25 10:14:00,30.2,23.5,30.08,North,0,6.9,7.3,76,0.00,CLR,,0.00,WeatherDisplay:10.37,2013-03-25 15:14:00,
2013-03-25 10:19:00,30.4,23.4,30.09,North,0,8.1,8.4,75,0.00,CLR,,0.00,WeatherDisplay:10.37,2013-03-25 15:19:00,
2013-03-25 10:24:00,30.9,23.9,30.08,North,0,5.9,6.4,75,0.00,CLR,,0.00,WeatherDisplay:10.37,2013-03-25 15:24:00,
2013-03-25 10:29:00,31.1,23.8,30.09,North,0,8.1,8.6,74,0.00,CLR,,0.00,WeatherDisplay:10.37,2013-03-25 15:29:00,
2013-03-25 10:34:00,31.5,24.1,30.09,North,0,8.1,8.1,74,0.00,CLR,,0.00,WeatherDisplay:10.37,2013-03-25 15:34:00,
2013-03-25 10:39:00,31.6,24.0,30.09,North,0,6.2,6.7,73,0.00,CLR,,0.00,WeatherDisplay:10.37,2013-03-25 15:39:00,
2013-03-25 10:44:00,32.2,24.2,30.09,NNE,22,5.9,6.0,72,0.00,CLR,,0.00,WeatherDisplay:10.37,2013-03-25 15:44:00,
2013-03-25 10:49:00,32.2,23.8,30.09,North,0,9.5,10.1,71,0.00,CLR,,0.00,WeatherDisplay:10.37,2013-03-25 15:49:00,
2013-03-25 10:54:00,32.0,23.7,30.09,NNE,22,6.9,7.7,71,0.00,CLR,,0.00,WeatherDisplay:10.37,2013-03-25 15:54:00,
2013-03-25 10:59:00,32.2,23.5,30.09,North,0,11.5,11.7,70,0.00,CLR,,0.00,WeatherDisplay:10.37,2013-03-25 15:59:00,
2013-03-25 11:04:00,32.4,23.7,30.09,North,0,5.9,6.4,70,0.00,CLR,,0.00,WeatherDisplay:10.37,2013-03-25 16:04:00,
2013-03-25 11:09:00,32.5,23.8,30.10,NNW,338,8.1,8.1,70,0.00,CLR,,0.00,WeatherDisplay:10.37,2013-03-25 16:09:00,
2013-03-25 11:14:00,32.7,23.7,30.10,NNW,338,6.9,7.8,69,0.00,CLR,,0.00,WeatherDisplay:10.37,2013-03-25 16:14:00,
2013-03-25 11:19:00,32.9,23.8,30.10,North,0,7.0,7.5,69,0.00,CLR,,0.00,WeatherDisplay:10.37,2013-03-25 16:19:00,
2013-03-25 11:24:00,33.4,24.4,30.10,North,0,7.0,7.0,69,0.00,CLR,,0.00,WeatherDisplay:10.37,2013-03-25 16:24:00,
2013-03-25 11:29:00,34.0,24.9,30.10,North,0,8.1,8.1,69,0.00,CLR,,0.00,WeatherDisplay:10.37,2013-03-25 16:29:00,
2013-03-25 11:34:00,34.0,24.5,30.10,NNE,22,6.9,7.8,68,0.00,CLR,,0.00,WeatherDisplay:10.37,2013-03-25 16:34:00,
2013-03-25 11:39:00,34.0,24.2,30.11,North,0,3.5,7.4,67,0.00,CLR,,0.00,WeatherDisplay:10.37,2013-03-25 16:39:00,
2013-03-25 11:44:00,34.2,24.3,30.11,NNE,22,9.5,10.1,67,0.00,CLR,,0.00,WeatherDisplay:10.37,2013-03-25 16:44:00,
2013-03-25 11:49:00,34.3,24.2,30.11,North,0,9.2,9.3,66,0.00,CLR,,0.00,WeatherDisplay:10.37,2013-03-25 16:49:00,
2013-03-25 11:54:00,34.7,24.5,30.11,NNE,22,8.1,8.4,66,0.00,CLR,,0.00,WeatherDisplay:10.37,2013-03-25 16:54:00,
2013-03-25 11:59:00,34.7,24.1,30.11,North,0,8.1,8.1,65,0.00,CLR,,0.00,WeatherDisplay:10.37,2013-03-25 16:59:00,
2013-03-25 12:04:00,34.9,24.3,30.11,NNW,338,2.3,2.6,65,0.00,CLR,,0.00,WeatherDisplay:10.37,2013-03-25 17:04:00,
2013-03-25 12:09:00,35.8,25.2,30.11,North,0,8.1,8.1,65,0.00,CLR,,0.00,WeatherDisplay:10.37,2013-03-25 17:09:00,
2013-03-25 12:14:00,36.0,25.3,30.11,North,0,8.1,8.7,65,0.00,CLR,,0.00,WeatherDisplay:10.37,2013-03-25 17:14:00,
2013-03-25 12:19:00,36.0,25.0,30.11,North,0,6.9,7.2,64,0.00,CLR,,0.00,WeatherDisplay:10.37,2013-03-25 17:19:00,
2013-03-25 12:24:00,36.0,25.0,30.11,North,0,8.1,8.1,64,0.00,CLR,,0.00,WeatherDisplay:10.37,2013-03-25 17:24:00,
2013-03-25 12:29:00,35.8,24.8,30.11,North,0,9.5,10.1,64,0.00,CLR,,0.00,WeatherDisplay:10.37,2013-03-25 17:29:00,
2013-03-25 12:34:00,35.4,24.4,30.12,North,0,9.2,9.2,64,0.02,RA,,0.02,WeatherDisplay:10.37,2013-03-25 17:34:00,
2013-03-25 12:39:00,35.8,24.8,30.11,North,0,9.2,9.2,64,0.02,RA,,0.02,WeatherDisplay:10.37,2013-03-25 17:39:00,
2013-03-25 12:44:00,36.0,25.0,30.12,North,0,8.1,8.1,64,0.02,CLR,,0.02,WeatherDisplay:10.37,2013-03-25 17:44:00,
2013-03-25 12:49:00,36.3,25.3,30.11,North,0,10.5,10.5,64,0.04,RA,,0.04,WeatherDisplay:10.37,2013-03-25 17:49:00,
2013-03-25 12:54:00,36.1,25.1,30.12,NNW,338,6.9,7.0,64,0.04,RA,,0.04,WeatherDisplay:10.37,2013-03-25 17:54:00,
2013-03-25 12:59:00,36.1,25.1,30.11,North,0,9.2,10.4,64,0.04,,,0.04,WeatherDisplay:10.37,2013-03-25 17:59:00,
2013-03-25 13:04:00,36.0,24.6,30.12,North,0,9.2,9.2,63,0.04,CLR,,0.04,WeatherDisplay:10.37,2013-03-25 18:04:00,
2013-03-25 13:09:00,35.8,24.8,30.12,North,0,8.1,8.1,64,0.04,CLR,,0.04,WeatherDisplay:10.37,2013-03-25 18:09:00,
2013-03-25 13:14:00,35.8,24.8,30.11,North,0,8.1,8.1,64,0.04,CLR,,0.04,WeatherDisplay:10.37,2013-03-25 18:14:00,
2013-03-25 13:19:00,36.0,25.0,30.12,North,0,7.0,7.0,64,0.04,CLR,,0.04,WeatherDisplay:10.37,2013-03-25 18:19:00,
2013-03-25 13:24:00,36.1,25.1,30.11,North,0,8.1,8.1,64,0.04,CLR,,0.04,WeatherDisplay:10.37,2013-03-25 18:24:00,
2013-03-25 13:29:00,36.1,25.5,30.12,North,0,8.1,8.4,65,0.04,CLR,,0.04,WeatherDisplay:10.37,2013-03-25 18:29:00,
2013-03-25 13:34:00,36.3,25.7,30.12,North,0,10.4,10.4,65,0.02,CLR,,0.04,WeatherDisplay:10.37,2013-03-25 18:34:00,
2013-03-25 13:39:00,36.3,25.7,30.12,North,0,7.3,7.8,65,0.02,CLR,,0.04,WeatherDisplay:10.37,2013-03-25 18:39:00,
2013-03-25 13:44:00,36.3,25.7,30.12,North,0,8.1,8.1,65,0.02,CLR,,0.04,WeatherDisplay:10.37,2013-03-25 18:44:00,
2013-03-25 13:49:00,36.0,25.0,30.12,NNW,338,8.1,8.1,64,0.00,CLR,,0.04,WeatherDisplay:10.37,2013-03-25 18:49:00,
2013-03-25 13:54:00,36.0,25.0,30.12,North,0,5.8,5.8,64,0.00,CLR,,0.04,WeatherDisplay:10.37,2013-03-25 18:54:00,
2013-03-25 13:59:00,35.8,24.8,30.11,North,0,5.8,6.7,64,0.00,CLR,,0.04,WeatherDisplay:10.37,2013-03-25 18:59:00,
2013-03-25 14:04:00,35.8,24.8,30.12,North,0,8.4,8.5,64,0.00,CLR,,0.04,WeatherDisplay:10.37,2013-03-25 19:04:00,
2013-03-25 14:09:00,35.8,24.8,30.12,North,0,8.1,8.7,64,0.00,CLR,,0.04,WeatherDisplay:10.37,2013-03-25 19:09:00,
2013-03-25 14:14:00,35.8,24.8,30.12,North,0,7.3,7.8,64,0.00,CLR,,0.04,WeatherDisplay:10.37,2013-03-25 19:14:00,
2013-03-25 14:19:00,35.4,24.4,30.12,North,0,8.1,8.1,64,0.00,CLR,,0.04,WeatherDisplay:10.37,2013-03-25 19:19:00,
2013-03-25 14:24:00,35.4,24.4,30.12,North,0,8.1,8.4,64,0.00,CLR,,0.04,WeatherDisplay:10.37,2013-03-25 19:24:00,
2013-03-25 14:29:00,35.2,24.3,30.12,North,0,10.4,10.4,64,0.00,CLR,,0.04,WeatherDisplay:10.37,2013-03-25 19:29:00,
2013-03-25 14:34:00,35.4,24.4,30.12,North,0,8.1,8.1,64,0.00,CLR,,0.04,WeatherDisplay:10.37,2013-03-25 19:34:00,
2013-03-25 14:39:00,35.2,24.3,30.12,North,0,10.4,10.4,64,0.00,CLR,,0.04,WeatherDisplay:10.37,2013-03-25 19:39:00,
2013-03-25 14:44:00,35.1,24.1,30.12,North,0,6.9,7.1,64,0.00,CLR,,0.04,WeatherDisplay:10.37,2013-03-25 19:44:00,
2013-03-25 14:49:00,35.6,25.0,30.12,NNW,338,7.8,7.8,65,0.00,CLR,,0.04,WeatherDisplay:10.37,2013-03-25 19:49:00,
2013-03-25 14:54:00,36.1,25.5,30.12,North,0,8.1,8.1,65,0.00,CLR,,0.04,WeatherDisplay:10.37,2013-03-25 19:54:00,
2013-03-25 14:59:00,36.3,25.3,30.12,North,0,6.9,6.9,64,0.00,CLR,,0.04,WeatherDisplay:10.37,2013-03-25 19:59:00,
2013-03-25 15:04:00,36.3,25.3,30.12,North,0,8.1,8.1,64,0.00,CLR,,0.04,WeatherDisplay:10.37,2013-03-25 20:04:00,
2013-03-25 15:09:00,36.1,25.1,30.12,North,0,6.9,6.9,64,0.00,CLR,,0.04,WeatherDisplay:10.37,2013-03-25 20:09:00,
2013-03-25 15:14:00,36.0,25.0,30.12,NNW,338,3.5,3.8,64,0.00,CLR,,0.04,WeatherDisplay:10.37,2013-03-25 20:14:00,
2013-03-25 15:19:00,36.0,25.3,30.12,North,0,6.9,6.9,65,0.00,CLR,,0.04,WeatherDisplay:10.37,2013-03-25 20:19:00,
2013-03-25 15:24:00,35.8,24.8,30.13,North,0,7.0,7.5,64,0.00,CLR,,0.04,WeatherDisplay:10.37,2013-03-25 20:24:00,
2013-03-25 15:29:00,35.8,25.2,30.12,North,0,6.9,7.1,65,0.00,CLR,,0.04,WeatherDisplay:10.37,2013-03-25 20:29:00,
2013-03-25 15:34:00,35.6,24.6,30.13,North,0,8.1,8.1,64,0.00,CLR,,0.04,WeatherDisplay:10.37,2013-03-25 20:34:00,
2013-03-25 15:39:00,35.6,24.6,30.12,NNW,338,6.2,6.7,64,0.00,CLR,,0.04,WeatherDisplay:10.37,2013-03-25 20:39:00,
2013-03-25 15:44:00,35.8,25.2,30.13,North,0,6.9,6.9,65,0.00,CLR,,0.04,WeatherDisplay:10.37,2013-03-25 20:44:00,
2013-03-25 15:49:00,35.8,25.2,30.13,North,0,7.0,7.2,65,0.00,CLR,,0.04,WeatherDisplay:10.37,2013-03-25 20:49:00,
2013-03-25 15:54:00,35.4,24.4,30.13,North,0,2.3,0.0,64,0.00,CLR,,0.04,WeatherDisplay:10.37,2013-03-25 20:54:00,
2013-03-25 15:59:00,35.2,24.3,30.13,North,0,7.6,7.6,64,0.00,CLR,,0.04,WeatherDisplay:10.37,2013-03-25 20:59:00,
2013-03-25 16:04:00,35.1,24.1,30.13,North,0,5.8,0.0,64,0.00,CLR,,0.04,WeatherDisplay:10.37,2013-03-25 21:04:00,
2013-03-25 16:09:00,35.2,24.6,30.13,NNW,338,4.6,4.6,65,0.00,CLR,,0.04,WeatherDisplay:10.37,2013-03-25 21:09:00,
2013-03-25 16:14:00,35.1,24.5,30.13,NNE,22,2.3,2.4,65,0.00,CLR,,0.04,WeatherDisplay:10.37,2013-03-25 21:14:00,
2013-03-25 16:19:00,35.2,24.6,30.13,North,0,8.1,8.6,65,0.00,CLR,,0.04,WeatherDisplay:10.37,2013-03-25 21:19:00,
2013-03-25 16:24:00,35.2,24.6,30.13,NNE,22,0.0,0.0,65,0.00,CLR,,0.04,WeatherDisplay:10.37,2013-03-25 21:24:00,
2013-03-25 16:29:00,35.2,24.6,30.13,North,0,9.2,9.3,65,0.00,CLR,,0.04,WeatherDisplay:10.37,2013-03-25 21:29:00,
2013-03-25 16:34:00,35.1,24.1,30.13,NNW,338,9.7,10.4,64,0.00,CLR,,0.04,WeatherDisplay:10.37,2013-03-25 21:34:00,
2013-03-25 16:39:00,34.9,24.3,30.13,North,0,8.1,8.7,65,0.00,CLR,,0.04,WeatherDisplay:10.37,2013-03-25 21:39:00,
2013-03-25 16:44:00,35.2,24.6,30.13,North,0,5.8,5.8,65,0.00,CLR,,0.04,WeatherDisplay:10.37,2013-03-25 21:44:00,
2013-03-25 16:49:00,35.1,24.5,30.13,North,0,5.8,5.8,65,0.00,CLR,,0.04,WeatherDisplay:10.37,2013-03-25 21:49:00,
2013-03-25 16:54:00,35.1,24.5,30.13,NNW,338,2.3,2.3,65,0.00,CLR,,0.04,WeatherDisplay:10.37,2013-03-25 21:54:00,
2013-03-25 16:59:00,35.1,24.5,30.13,North,0,5.7,5.7,65,0.00,CLR,,0.04,WeatherDisplay:10.37,2013-03-25 21:59:00,
2013-03-25 17:04:00,34.7,24.1,30.14,North,0,6.9,0.0,65,0.00,CLR,,0.04,WeatherDisplay:10.37,2013-03-25 22:04:00,
2013-03-25 17:09:00,34.5,24.0,30.14,North,0,0.0,0.6,65,0.00,CLR,,0.04,WeatherDisplay:10.37,2013-03-25 22:09:00,
2013-03-25 17:14:00,34.3,23.8,30.14,North,0,7.6,7.6,65,0.00,CLR,,0.04,WeatherDisplay:10.37,2013-03-25 22:14:00,
2013-03-25 17:19:00,34.5,24.0,30.14,North,0,6.9,7.2,65,0.00,CLR,,0.04,WeatherDisplay:10.37,2013-03-25 22:19:00,
2013-03-25 17:24:00,34.3,23.8,30.14,North,0,1.4,1.4,65,0.00,CLR,,0.04,WeatherDisplay:10.37,2013-03-25 22:24:00,
2013-03-25 17:29:00,34.3,23.8,30.14,NNE,22,7.8,7.8,65,0.00,CLR,,0.04,WeatherDisplay:10.37,2013-03-25 22:29:00,
2013-03-25 17:34:00,34.3,23.4,30.14,North,0,7.0,7.5,64,0.00,CLR,,0.04,WeatherDisplay:10.37,2013-03-25 22:34:00,
2013-03-25 17:39:00,34.0,23.1,30.14,North,0,6.9,6.9,64,0.00,CLR,,0.04,WeatherDisplay:10.37,2013-03-25 22:39:00,
2013-03-25 17:44:00,34.0,23.1,30.14,North,0,6.9,7.8,64,0.00,CLR,,0.04,WeatherDisplay:10.37,2013-03-25 22:44:00,
2013-03-25 17:49:00,33.4,22.6,30.15,North,0,8.1,0.0,64,0.00,CLR,,0.04,WeatherDisplay:10.37,2013-03-25 22:49:00,
2013-03-25 17:54:00,33.4,22.6,30.15,North,0,7.8,0.0,64,0.00,CLR,,0.04,WeatherDisplay:10.37,2013-03-25 22:54:00,
2013-03-25 17:59:00,33.3,22.4,30.15,North,0,8.1,8.1,64,0.00,CLR,,0.04,WeatherDisplay:10.37,2013-03-25 22:59:00,
2013-03-25 18:04:00,33.3,22.4,30.15,North,0,6.9,6.9,64,0.00,CLR,,0.04,WeatherDisplay:10.37,2013-03-25 23:04:00,
2013-03-25 18:09:00,33.3,22.4,30.15,North,0,6.9,7.2,64,0.00,CLR,,0.04,WeatherDisplay:10.37,2013-03-25 23:09:00,
2013-03-25 18:14:00,33.1,22.2,30.15,North,0,1.6,1.7,64,0.00,CLR,,0.04,WeatherDisplay:10.37,2013-03-25 23:14:00,
2013-03-25 18:19:00,33.1,22.2,30.15,North,0,8.1,8.4,64,0.00,CLR,,0.04,WeatherDisplay:10.37,2013-03-25 23:19:00,
2013-03-25 18:24:00,33.1,22.2,30.16,North,0,5.8,5.8,64,0.00,CLR,,0.04,WeatherDisplay:10.37,2013-03-25 23:24:00,
2013-03-25 18:29:00,33.1,22.2,30.16,North,0,0.0,0.0,64,0.00,CLR,,0.04,WeatherDisplay:10.37,2013-03-25 23:29:00,
2013-03-25 18:34:00,32.9,22.4,30.16,North,0,2.4,2.6,65,0.00,CLR,,0.04,WeatherDisplay:10.37,2013-03-25 23:34:00,
2013-03-25 18:39:00,32.9,22.4,30.16,North,0,6.9,6.9,65,0.00,CLR,,0.04,WeatherDisplay:10.37,2013-03-25 23:39:00,
2013-03-25 18:44:00,32.9,22.4,30.17,North,0,4.6,4.6,65,0.00,CLR,,0.04,WeatherDisplay:10.37,2013-03-25 23:44:00,
2013-03-25 18:49:00,32.9,22.4,30.17,North,0,6.2,6.7,65,0.00,CLR,,0.04,WeatherDisplay:10.37,2013-03-25 23:49:00,
2013-03-25 18:54:00,32.9,22.4,30.17,North,0,6.9,6.9,65,0.00,CLR,,0.04,WeatherDisplay:10.37,2013-03-25 23:54:00,
2013-03-25 18:59:00,32.7,22.2,30.17,North,0,5.8,0.0,65,0.00,CLR,,0.04,WeatherDisplay:10.37,2013-03-25 23:59:00,
2013-03-25 19:04:00,32.7,22.6,30.18,North,0,8.1,8.1,66,0.00,CLR,,0.04,WeatherDisplay:10.37,2013-03-26 00:04:00,
2013-03-25 19:09:00,32.4,22.3,30.18,North,0,1.9,1.9,66,0.00,CLR,,0.04,WeatherDisplay:10.37,2013-03-26 00:09:00,
2013-03-25 19:14:00,32.2,22.1,30.18,North,0,2.3,2.3,66,0.00,CLR,,0.04,WeatherDisplay:10.37,2013-03-26 00:14:00,
2013-03-25 19:19:00,32.0,22.3,30.18,North,0,1.6,1.7,67,0.00,CLR,,0.04,WeatherDisplay:10.37,2013-03-26 00:19:00,
2013-03-25 19:24:00,31.6,21.9,30.18,North,0,1.4,1.4,67,0.00,CLR,,0.04,WeatherDisplay:10.37,2013-03-26 00:24:00,
2013-03-25 19:29:00,31.5,22.1,30.18,North,0,3.5,3.5,68,0.00,CLR,,0.04,WeatherDisplay:10.37,2013-03-26 00:29:00,
2013-03-25 19:34:00,31.5,22.1,30.18,North,0,6.9,6.9,68,0.00,CLR,,0.04,WeatherDisplay:10.37,2013-03-26 00:34:00,
2013-03-25 19:39:00,31.5,22.1,30.18,North,0,6.8,6.8,68,0.00,CLR,,0.04,WeatherDisplay:10.37,2013-03-26 00:39:00,
2013-03-25 19:44:00,31.3,21.9,30.19,North,0,5.8,6.1,68,0.00,CLR,,0.04,WeatherDisplay:10.37,2013-03-26 00:44:00,
2013-03-25 19:49:00,31.1,21.8,30.19,North,0,2.7,2.9,68,0.00,CLR,,0.04,WeatherDisplay:10.37,2013-03-26 00:49:00,
2013-03-25 19:54:00,31.1,21.8,30.19,North,0,0.0,0.0,68,0.00,CLR,,0.04,WeatherDisplay:10.37,2013-03-26 00:54:00,
2013-03-25 19:59:00,30.9,21.9,30.19,North,0,1.6,1.7,69,0.00,CLR,,0.04,WeatherDisplay:10.37,2013-03-26 00:59:00,
2013-03-25 20:04:00,30.9,21.9,30.19,North,0,0.0,0.0,69,0.00,CLR,,0.04,WeatherDisplay:10.37,2013-03-26 01:04:00,
2013-03-25 20:09:00,31.1,22.1,30.19,North,0,0.0,0.0,69,0.00,CLR,,0.04,WeatherDisplay:10.37,2013-03-26 01:09:00,
2013-03-25 20:15:00,31.1,22.1,30.19,North,0,0.0,0.0,69,0.00,CLR,,0.04,WeatherDisplay:10.37,2013-03-26 01:15:00,
2013-03-25 20:20:00,30.9,21.9,30.19,North,0,3.2,3.2,69,0.00,CLR,,0.04,WeatherDisplay:10.37,2013-03-26 01:20:00,
2013-03-25 20:25:00,30.9,21.9,30.20,North,0,0.8,0.8,69,0.00,CLR,,0.04,WeatherDisplay:10.37,2013-03-26 01:25:00,
2013-03-25 20:30:00,30.7,21.8,30.20,North,0,0.0,0.0,69,0.00,CLR,,0.04,WeatherDisplay:10.37,2013-03-26 01:30:00,
2013-03-25 20:35:00,30.4,21.4,30.19,North,0,2.4,2.4,69,0.00,CLR,,0.04,WeatherDisplay:10.37,2013-03-26 01:35:00,
2013-03-25 20:40:00,30.4,21.4,30.20,North,0,3.5,3.5,69,0.00,CLR,,0.04,WeatherDisplay:10.37,2013-03-26 01:40:00,
2013-03-25 20:45:00,30.0,21.1,30.20,North,0,2.3,2.3,69,0.00,CLR,,0.04,WeatherDisplay:10.37,2013-03-26 01:45:00,
2013-03-25 20:50:00,29.7,20.7,30.20,North,0,0.0,0.0,69,0.00,CLR,,0.04,WeatherDisplay:10.37,2013-03-26 01:50:00,
2013-03-25 20:55:00,29.5,20.6,30.20,North,0,0.0,0.0,69,0.00,CLR,,0.04,WeatherDisplay:10.37,2013-03-26 01:55:00,
2013-03-25 21:00:00,29.3,20.4,30.20,North,0,0.0,0.0,69,0.00,CLR,,0.04,WeatherDisplay:10.37,2013-03-26 02:00:00,
2013-03-25 21:05:00,29.1,20.2,30.20,North,0,0.0,0.0,69,0.00,CLR,,0.04,WeatherDisplay:10.37,2013-03-26 02:05:00,
2013-03-25 21:10:00,29.1,20.6,30.20,North,0,0.0,0.0,70,0.00,CLR,,0.04,WeatherDisplay:10.37,2013-03-26 02:10:00,
2013-03-25 21:15:00,28.9,20.4,30.20,North,0,0.0,0.0,70,0.00,CLR,,0.04,WeatherDisplay:10.37,2013-03-26 02:15:00,
2013-03-25 21:20:00,28.8,20.2,30.21,NNW,338,0.0,0.0,70,0.00,CLR,,0.04,WeatherDisplay:10.37,2013-03-26 02:20:00,
2013-03-25 21:25:00,28.8,20.2,30.21,NNW,338,0.0,0.0,70,0.00,CLR,,0.04,WeatherDisplay:10.37,2013-03-26 02:25:00,
2013-03-25 21:30:00,28.8,20.5,30.21,NNW,338,0.0,0.0,71,0.00,CLR,,0.04,WeatherDisplay:10.37,2013-03-26 02:30:00,
2013-03-25 21:35:00,28.8,20.5,30.21,NNW,338,0.0,0.0,71,0.00,CLR,,0.04,WeatherDisplay:10.37,2013-03-26 02:35:00,
2013-03-25 21:40:00,28.8,20.9,30.21,NNW,338,0.0,0.0,72,0.00,CLR,,0.04,WeatherDisplay:10.37,2013-03-26 02:40:00,
2013-03-25 21:45:00,28.9,21.0,30.21,NW,315,0.0,0.0,72,0.00,CLR,,0.04,WeatherDisplay:10.37,2013-03-26 02:45:00,
2013-03-25 21:50:00,28.9,21.0,30.21,NW,315,0.0,0.0,72,0.00,CLR,,0.04,WeatherDisplay:10.37,2013-03-26 02:50:00,
2013-03-25 21:55:00,29.1,21.5,30.21,NW,315,0.0,0.0,73,0.00,CLR,,0.04,WeatherDisplay:10.37,2013-03-26 02:55:00,
2013-03-25 22:00:00,28.9,21.4,30.21,NW,315,0.0,0.0,73,0.00,CLR,,0.04,WeatherDisplay:10.37,2013-03-26 03:00:00,
2013-03-25 22:05:00,28.9,21.7,30.22,NW,315,0.0,0.0,74,0.00,CLR,,0.04,WeatherDisplay:10.37,2013-03-26 03:05:00,
2013-03-25 22:10:00,28.9,21.7,30.22,NW,315,0.0,0.0,74,0.00,CLR,,0.04,WeatherDisplay:10.37,2013-03-26 03:10:00,
2013-03-25 22:15:00,29.1,21.9,30.22,NW,315,0.0,0.0,74,0.00,CLR,,0.04,WeatherDisplay:10.37,2013-03-26 03:15:00,
2013-03-25 22:20:00,29.1,21.9,30.22,NW,315,0.0,0.0,74,0.00,CLR,,0.04,WeatherDisplay:10.37,2013-03-26 03:20:00,
2013-03-25 22:25:00,29.1,22.2,30.22,NNW,338,0.0,0.0,75,0.00,CLR,,0.04,WeatherDisplay:10.37,2013-03-26 03:25:00,
2013-03-25 22:30:00,29.3,22.4,30.22,NNW,338,0.0,0.0,75,0.00,CLR,,0.04,WeatherDisplay:10.37,2013-03-26 03:30:00,
2013-03-25 22:35:00,29.3,22.4,30.22,NNW,338,0.0,0.0,75,0.00,CLR,,0.04,WeatherDisplay:10.37,2013-03-26 03:35:00,
2013-03-25 22:40:00,29.3,22.7,30.22,North,0,2.4,2.6,76,0.00,CLR,,0.04,WeatherDisplay:10.37,2013-03-26 03:40:00,
2013-03-25 22:45:00,29.8,22.9,30.22,North,0,4.6,4.6,75,0.00,CLR,,0.04,WeatherDisplay:10.37,2013-03-26 03:45:00,
2013-03-25 22:50:00,30.0,23.1,30.22,North,0,5.8,6.1,75,0.00,CLR,,0.04,WeatherDisplay:10.37,2013-03-26 03:50:00,
2013-03-25 22:55:00,30.2,23.2,30.22,NNE,22,4.6,5.5,75,0.00,CLR,,0.04,WeatherDisplay:10.37,2013-03-26 03:55:00,
2013-03-25 23:00:00,30.4,23.4,30.22,North,0,0.0,0.0,75,0.00,CLR,,0.04,WeatherDisplay:10.37,2013-03-26 04:00:00,
2013-03-25 23:01:00,30.4,23.4,30.22,North,0,4.6,4.6,75,0.00,CLR,,0.04,WeatherDisplay:10.37,2013-03-26 04:01:00,
2013-03-25 23:06:00,30.4,23.1,30.23,North,0,8.1,8.1,74,0.00,CLR,,0.04,WeatherDisplay:10.37,2013-03-26 04:06:00,
2013-03-25 23:11:00,30.4,23.1,30.23,North,0,4.6,4.9,74,0.00,CLR,,0.04,WeatherDisplay:10.37,2013-03-26 04:11:00,
2013-03-25 23:16:00,30.4,23.1,30.23,North,0,6.9,6.9,74,0.00,CLR,,0.04,WeatherDisplay:10.37,2013-03-26 04:16:00,
2013-03-25 23:21:00,30.2,22.9,30.23,North,0,4.6,4.6,74,0.00,CLR,,0.04,WeatherDisplay:10.37,2013-03-26 04:21:00,
2013-03-25 23:26:00,30.0,22.7,30.23,North,0,8.1,8.1,74,0.00,CLR,,0.04,WeatherDisplay:10.37,2013-03-26 04:26:00,
2013-03-25 23:31:00,30.0,22.7,30.23,North,0,6.9,7.2,74,0.00,CLR,,0.04,WeatherDisplay:10.37,2013-03-26 04:31:00,
2013-03-25 23:36:00,29.8,22.6,30.23,NNE,22,8.4,8.4,74,0.00,CLR,,0.04,WeatherDisplay:10.37,2013-03-26 04:36:00,
2013-03-25 23:41:00,29.7,22.1,30.25,North,0,8.1,8.4,73,0.00,CLR,,0.04,WeatherDisplay:10.37,2013-03-26 04:41:00,
2013-03-25 23:46:00,29.3,21.7,30.23,North,0,8.1,8.4,73,0.00,CLR,,0.04,WeatherDisplay:10.37,2013-03-26 04:46:00,
2013-03-25 23:51:00,28.9,21.0,30.25,North,0,7.3,7.7,72,0.00,CLR,,0.04,WeatherDisplay:10.37,2013-03-26 04:51:00,
2013-03-25 23:56:00,28.8,20.9,30.25,North,0,7.3,7.8,72,0.00,CLR,,0.04,WeatherDisplay:10.37,2013-03-26 04:56:00,